Blue Bay — V2CE6 — position and weather

sailwx.info

Track history (hours):
 
Tides and Currents Weather Stations Pressure Air Temp Water Temp Dewpoint Dewpoint Depression Visibility Wind Speed Wind Dir Waves Ship Positions

Blue Bay

Last reported at 2016-Apr-30 16:33 UTC. Time now 2016-May-03 06:46 UTC.
Position N 49°44' W 003°32'.

Length 89 m; draft 5.3 m.

Type: Ship (hazmat cat A). MMSI: 304519000.

Date/timePositionNaut miles runAvg speedWind from/ knotsBaromVisibWave heightAir tempDewpointWater temp
2016-Apr-30 16:33N 49°44' W 003°32'10 9.8
2016-Apr-30 15:33N 49°49' W 003°19'9 9.3
2016-Apr-30 14:33N 49°53' W 003°06'9 8.9
2016-Apr-30 13:33N 49°58' W 002°54'12 8.8
2016-Apr-30 12:10N 50°02' W 002°36'8310.8
2016-Apr-30 04:29N 50°26' W 000°33'9 9.7
2016-Apr-30 03:33N 50°28' W 000°19'9 9.1
2016-Apr-30 02:33N 50°31' W 000°06'9 8.5
2016-Apr-30 01:33N 50°34' E 000°07'8 8.3
2016-Apr-30 00:33N 50°36' E 000°20'10 8.7
2016-Apr-29 23:26N 50°39' E 000°34'27 9.4
2016-Apr-29 20:33N 50°55' E 001°09'9 8.8
2016-Apr-29 19:33N 51°00' E 001°20'8 7.7
2016-Apr-29 18:33N 51°05' E 001°29'6 6.2
2016-Apr-29 17:33N 51°09' E 001°37'6 5.9
2016-Apr-29 16:33N 51°13' E 001°44'6 5.8
2016-Apr-29 15:33N 51°18' E 001°50'7 6.9
2016-Apr-29 14:33N 51°24' E 001°56'8 8.5
2016-Apr-29 13:33N 51°30' E 002°04'9 9.5
2016-Apr-29 12:33N 51°37' E 002°14'22 9.5
2016-Apr-29 10:13N 51°54' E 002°38'35 7.3
2016-Apr-29 05:26N 52°04' E 003°33'6 6.6
2016-Apr-29 04:33N 52°04' E 003°42'7 6.6
2016-Apr-29 03:33N 52°03' E 003°53'8 8.4
2016-Apr-29 02:33N 51°59' E 004°05'1111.2
2016-Apr-29 01:33N 51°53' E 004°20'9 9.4
2016-Apr-29 00:33N 51°49' E 004°34'3 3.0
2016-Apr-28 23:33N 51°48' E 004°38'0 0.0
2016-Apr-28 22:34N 51°48' E 004°38'0 0.0
2016-Apr-28 21:33N 51°48' E 004°38'0 0.0
2016-Apr-28 20:32N 51°48' E 004°38'0 0.0
2016-Apr-28 19:34N 51°48' E 004°38'0 0.0
2016-Apr-28 18:33N 51°48' E 004°38'0 0.0
2016-Apr-28 17:33N 51°48' E 004°38'0 0.0
2016-Apr-28 16:32N 51°48' E 004°38'0 0.0
2016-Apr-28 15:33N 51°48' E 004°38'0 0.0
2016-Apr-28 14:34N 51°48' E 004°38'0 0.1
2016-Apr-28 13:33N 51°48' E 004°38'6 5.6
2016-Apr-28 12:33N 51°50' E 004°30'7 7.1
2016-Apr-28 11:33N 51°53' E 004°19'8 7.6
2016-Apr-28 10:34N 51°57' E 004°09'8 8.3
2016-Apr-28 09:33N 51°60' E 003°56'5 5.4
2016-Apr-28 08:33N 51°57' E 003°50'1 1.1
2016-Apr-28 07:33N 51°55' E 003°49'0 0.0
2016-Apr-28 06:33N 51°55' E 003°49'0 0.0
2016-Apr-28 05:33N 51°55' E 003°49'0 0.0
2016-Apr-28 04:33N 51°55' E 003°49'0 0.1
2016-Apr-28 03:33N 51°55' E 003°49'0 0.2
2016-Apr-28 02:33N 51°55' E 003°49'0 0.0
2016-Apr-28 01:33N 51°55' E 003°49'0 0.0
2016-Apr-28 00:33N 51°55' E 003°49'0 0.0
2016-Apr-27 23:33N 51°55' E 003°49'0 0.1
2016-Apr-27 22:33N 51°55' E 003°49'0 0.0
2016-Apr-27 21:33N 51°55' E 003°49'0 0.0
2016-Apr-27 20:33N 51°55' E 003°49'0 0.1
2016-Apr-27 19:33N 51°55' E 003°49'0 0.0
2016-Apr-27 18:33N 51°55' E 003°49'0 0.0
2016-Apr-27 17:33N 51°55' E 003°49'0 0.0
2016-Apr-27 16:33N 51°55' E 003°49'0 0.0
2016-Apr-27 15:33N 51°55' E 003°49'0 0.1
2016-Apr-27 14:33N 51°55' E 003°49'0 0.0
2016-Apr-27 13:33N 51°55' E 003°49'0 0.1
2016-Apr-27 12:33N 51°55' E 003°49'0 0.0
2016-Apr-27 11:33N 51°55' E 003°49'0 0.0
2016-Apr-27 10:33N 51°55' E 003°49'0 0.0
2016-Apr-27 09:33N 51°55' E 003°49'0 0.0
2016-Apr-27 08:33N 51°55' E 003°49'0 0.0
2016-Apr-27 07:33N 51°55' E 003°49'0 0.0
2016-Apr-27 06:33N 51°55' E 003°49'0 0.0
2016-Apr-27 05:33N 51°55' E 003°49'0 0.0
2016-Apr-27 04:33N 51°55' E 003°49'0 0.1
2016-Apr-27 03:33N 51°55' E 003°49'0 0.1
2016-Apr-27 02:33N 51°55' E 003°49'0 0.3
2016-Apr-27 01:33N 51°56' E 003°49'0 0.0
2016-Apr-27 00:33N 51°56' E 003°49'0 0.0
2016-Apr-26 23:33N 51°56' E 003°49'0 0.0
2016-Apr-26 22:33N 51°56' E 003°49'0 0.0
2016-Apr-26 21:33N 51°56' E 003°49'1 0.9
2016-Apr-26 20:33N 51°57' E 003°49'1010.1
2016-Apr-26 19:33N 52°04' E 003°38'1410.4
2016-Apr-26 18:13N 52°11' E 003°18'710.4
2016-Apr-26 17:32N 52°14' E 003°08'1110.5
2016-Apr-26 16:32N 52°18' E 002°52'2210.5
2016-Apr-26 14:26N 52°24' E 002°17'910.4
2016-Apr-26 13:33N 52°28' E 002°04'1110.5
2016-Apr-26 12:33N 52°33' E 001°48'3 3.2
2016-Apr-26 11:31N 52°35' E 001°44'0 0.0
2016-Apr-26 10:31N 52°35' E 001°44'0 0.0
2016-Apr-26 09:31N 52°35' E 001°44'0 0.0
2016-Apr-26 08:31N 52°35' E 001°44'0 0.0
2016-Apr-26 07:31N 52°35' E 001°44'0 0.0
2016-Apr-26 06:31N 52°35' E 001°44'0 0.0
2016-Apr-26 05:31N 52°35' E 001°44'0 0.0
2016-Apr-26 04:28N 52°35' E 001°44'0 0.0
2016-Apr-26 03:31N 52°35' E 001°44'0 0.0
2016-Apr-26 02:31N 52°35' E 001°44'0 0.0
2016-Apr-26 01:31N 52°35' E 001°44'0 0.0
2016-Apr-26 00:31N 52°35' E 001°44'0 0.0
2016-Apr-25 23:31N 52°35' E 001°44'0 0.0
2016-Apr-25 22:31N 52°35' E 001°44'0 0.0
2016-Apr-25 21:31N 52°35' E 001°44'0 0.0
2016-Apr-25 20:31N 52°35' E 001°44'0 0.0
2016-Apr-25 19:31N 52°35' E 001°44'0 0.0
2016-Apr-25 18:31N 52°35' E 001°44'0 0.0
2016-Apr-25 17:31N 52°35' E 001°44'0 0.0
2016-Apr-25 16:31N 52°35' E 001°44'0 0.0
2016-Apr-25 15:28N 52°35' E 001°44'0 0.0
2016-Apr-25 14:28N 52°35' E 001°44'0 0.0
2016-Apr-25 13:31N 52°35' E 001°44'0 0.0
2016-Apr-25 12:31N 52°35' E 001°44'0 0.0
2016-Apr-25 11:31N 52°35' E 001°44'0 0.0
2016-Apr-25 10:31N 52°35' E 001°44'0 0.0
2016-Apr-25 09:31N 52°35' E 001°44'0 0.0
2016-Apr-25 08:31N 52°35' E 001°44'0 0.0
2016-Apr-25 07:31N 52°35' E 001°44'0 0.0
2016-Apr-25 06:31N 52°35' E 001°44'0 0.0
2016-Apr-25 05:31N 52°35' E 001°44'0 0.0
2016-Apr-25 04:31N 52°35' E 001°44'0 0.0
2016-Apr-25 03:31N 52°35' E 001°44'0 0.0
2016-Apr-25 02:31N 52°35' E 001°44'0 0.0
2016-Apr-25 01:31N 52°35' E 001°44'0 0.0
2016-Apr-25 00:31N 52°35' E 001°44'0 0.0
2016-Apr-24 23:31N 52°35' E 001°44'0 0.0
2016-Apr-24 22:31N 52°35' E 001°44'0 0.0
2016-Apr-24 21:31N 52°35' E 001°44'0 0.0
2016-Apr-24 20:31N 52°35' E 001°44'0 0.0
2016-Apr-24 19:31N 52°35' E 001°44'0 0.0
2016-Apr-24 18:31N 52°35' E 001°44'0 0.0
2016-Apr-24 17:31N 52°35' E 001°44'0 0.0
2016-Apr-24 16:31N 52°35' E 001°44'0 0.0
2016-Apr-24 15:31N 52°35' E 001°44'0 0.0
2016-Apr-24 14:31N 52°35' E 001°44'0 0.0
2016-Apr-24 13:31N 52°35' E 001°44'0 0.0
2016-Apr-24 12:31N 52°35' E 001°44'0 0.0
2016-Apr-24 11:31N 52°35' E 001°44'0 0.0
2016-Apr-24 10:31N 52°35' E 001°44'0 0.0
2016-Apr-24 09:31N 52°35' E 001°44'0 0.0
2016-Apr-24 08:28N 52°35' E 001°44'0 0.0
2016-Apr-24 07:31N 52°35' E 001°44'0 0.0
2016-Apr-24 06:31N 52°35' E 001°44'0 0.0
2016-Apr-24 05:31N 52°35' E 001°44'0 0.0
2016-Apr-24 04:31N 52°35' E 001°44'0 0.0
2016-Apr-24 03:31N 52°35' E 001°44'0 0.0
2016-Apr-24 02:31N 52°35' E 001°44'0 0.0
2016-Apr-24 01:31N 52°35' E 001°44'0 0.0
2016-Apr-24 00:31N 52°35' E 001°44'0 0.0
2016-Apr-23 23:31N 52°35' E 001°44'0 0.0
2016-Apr-23 22:31N 52°35' E 001°44'0 0.0
2016-Apr-23 21:31N 52°35' E 001°44'0 0.0
2016-Apr-23 20:31N 52°35' E 001°44'0 0.0
2016-Apr-23 19:31N 52°35' E 001°44'0 0.0
2016-Apr-23 18:31N 52°35' E 001°44'0 0.0
2016-Apr-23 17:31N 52°35' E 001°44'0 0.0
2016-Apr-23 16:31N 52°35' E 001°44'0 0.0
2016-Apr-23 15:31N 52°35' E 001°44'0 0.0
2016-Apr-23 14:33N 52°35' E 001°44'0 0.0
2016-Apr-23 13:33N 52°35' E 001°44'0 0.0
2016-Apr-23 12:33N 52°35' E 001°44'0 0.1
2016-Apr-23 11:33N 52°35' E 001°44'1 1.2
2016-Apr-23 10:33N 52°35' E 001°46'1 0.5
2016-Apr-23 09:33N 52°35' E 001°46'2 2.1
2016-Apr-23 08:33N 52°33' E 001°46'4 3.6
2016-Apr-23 07:33N 52°32' E 001°51'8 7.7
2016-Apr-23 06:33N 52°24' E 001°51'10 9.7
2016-Apr-23 05:33N 52°14' E 001°50'1111.0
2016-Apr-23 04:33N 52°03' E 001°50'1211.7
2016-Apr-23 03:33N 51°52' E 001°49'1111.4
2016-Apr-23 02:33N 51°40' E 001°49'1110.8
2016-Apr-23 01:33N 51°30' E 001°46'1111.3
2016-Apr-23 00:33N 51°19' E 001°41'1010.3
2016-Apr-22 23:33N 51°08' E 001°41'1010.1
2016-Apr-22 22:33N 51°00' E 001°31'9 8.7
2016-Apr-22 21:33N 50°53' E 001°24'45 7.4
2016-Apr-22 15:26N 50°25' E 000°28'7 7.7
2016-Apr-22 14:33N 50°23' E 000°18'7 7.4
2016-Apr-22 13:33N 50°21' E 000°07'7 7.3
2016-Apr-22 12:33N 50°20' W 000°04'7 7.5
2016-Apr-22 11:33N 50°21' W 000°16'8 8.4
2016-Apr-22 10:33N 50°25' W 000°28'11 9.8
2016-Apr-22 09:25N 50°28' W 000°45'910.7
2016-Apr-22 08:33N 50°30' W 000°59'1412.5
2016-Apr-22 07:29N 50°28' W 001°20'4510.1
2016-Apr-22 03:03N 50°20' W 002°28'4 7.7
2016-Apr-22 02:33N 50°19' W 002°34'8 7.6
2016-Apr-22 01:33N 50°16' W 002°45'8 8.1
2016-Apr-22 00:33N 50°14' W 002°57'9 8.7
2016-Apr-21 23:33N 50°11' W 003°10'9 9.1
2016-Apr-21 22:33N 50°09' W 003°24'9 9.5
2016-Apr-21 21:33N 50°07' W 003°39'10 9.5
2016-Apr-21 20:33N 50°05' W 003°53'10 9.8
2016-Apr-21 19:33N 50°03' W 004°08'1010.0
2016-Apr-21 18:33N 50°00' W 004°23'1010.1
2016-Apr-21 17:33N 49°58' W 004°38'1010.1
2016-Apr-21 16:33N 49°56' W 004°54'10 9.8
2016-Apr-21 15:32N 49°54' W 005°09'35 6.8
2016-Apr-21 10:24N 50°06' W 006°00'910.8
2016-Apr-21 09:33N 50°15' W 006°01'1010.4
2016-Apr-21 08:33N 50°24' W 005°53'1211.6
2016-Apr-21 07:33N 50°32' W 005°39'1110.6
2016-Apr-21 06:33N 50°39' W 005°27'10 9.9
2016-Apr-21 05:33N 50°45' W 005°14'10 9.7
2016-Apr-21 04:33N 50°51' W 005°02'9 9.4
2016-Apr-21 03:33N 50°57' W 004°51'9 9.0
2016-Apr-21 02:33N 51°03' W 004°40'9 9.0
2016-Apr-21 01:33N 51°09' W 004°29'10 9.8
2016-Apr-21 00:33N 51°16' W 004°18'1210.7
2016-Apr-20 23:27N 51°18' W 003°59'1212.8
2016-Apr-20 22:33N 51°20' W 003°41'1514.0
2016-Apr-20 21:28N 51°22' W 003°17'1112.1
2016-Apr-20 20:33N 51°26' W 003°01'1312.9
2016-Apr-20 19:33N 51°33' W 002°43'10 9.6
2016-Apr-20 18:33N 51°40' W 002°33'  
Track history (hours):
 
Tides and Currents Weather Stations Pressure Air Temp Water Temp Dewpoint Dewpoint Depression Visibility Wind Speed Wind Dir Waves Ship Positions

Blue Bay

Last reported at 2016-Apr-30 16:33 UTC. Time now 2016-May-03 06:46 UTC.
Position N 49°44' W 003°32'.

Length 89 m; draft 5.3 m.

Type: Ship (hazmat cat A). MMSI: 304519000.

Date/timePositionNaut miles runAvg speedWind from/ knotsBaromVisibWave heightAir tempDewpointWater temp
2016-Apr-30 16:33N 49°44' W 003°32'10 9.8
2016-Apr-30 15:33N 49°49' W 003°19'9 9.3
2016-Apr-30 14:33N 49°53' W 003°06'9 8.9
2016-Apr-30 13:33N 49°58' W 002°54'12 8.8
2016-Apr-30 12:10N 50°02' W 002°36'8310.8
2016-Apr-30 04:29N 50°26' W 000°33'9 9.7
2016-Apr-30 03:33N 50°28' W 000°19'9 9.1
2016-Apr-30 02:33N 50°31' W 000°06'9 8.5
2016-Apr-30 01:33N 50°34' E 000°07'8 8.3
2016-Apr-30 00:33N 50°36' E 000°20'10 8.7
2016-Apr-29 23:26N 50°39' E 000°34'27 9.4
2016-Apr-29 20:33N 50°55' E 001°09'9 8.8
2016-Apr-29 19:33N 51°00' E 001°20'8 7.7
2016-Apr-29 18:33N 51°05' E 001°29'6 6.2
2016-Apr-29 17:33N 51°09' E 001°37'6 5.9
2016-Apr-29 16:33N 51°13' E 001°44'6 5.8
2016-Apr-29 15:33N 51°18' E 001°50'7 6.9
2016-Apr-29 14:33N 51°24' E 001°56'8 8.5
2016-Apr-29 13:33N 51°30' E 002°04'9 9.5
2016-Apr-29 12:33N 51°37' E 002°14'22 9.5
2016-Apr-29 10:13N 51°54' E 002°38'35 7.3
2016-Apr-29 05:26N 52°04' E 003°33'6 6.6
2016-Apr-29 04:33N 52°04' E 003°42'7 6.6
2016-Apr-29 03:33N 52°03' E 003°53'8 8.4
2016-Apr-29 02:33N 51°59' E 004°05'1111.2
2016-Apr-29 01:33N 51°53' E 004°20'9 9.4
2016-Apr-29 00:33N 51°49' E 004°34'3 3.0
2016-Apr-28 23:33N 51°48' E 004°38'0 0.0
2016-Apr-28 22:34N 51°48' E 004°38'0 0.0
2016-Apr-28 21:33N 51°48' E 004°38'0 0.0
2016-Apr-28 20:32N 51°48' E 004°38'0 0.0
2016-Apr-28 19:34N 51°48' E 004°38'0 0.0
2016-Apr-28 18:33N 51°48' E 004°38'0 0.0
2016-Apr-28 17:33N 51°48' E 004°38'0 0.0
2016-Apr-28 16:32N 51°48' E 004°38'0 0.0
2016-Apr-28 15:33N 51°48' E 004°38'0 0.0
2016-Apr-28 14:34N 51°48' E 004°38'0 0.1
2016-Apr-28 13:33N 51°48' E 004°38'6 5.6
2016-Apr-28 12:33N 51°50' E 004°30'7 7.1
2016-Apr-28 11:33N 51°53' E 004°19'8 7.6
2016-Apr-28 10:34N 51°57' E 004°09'8 8.3
2016-Apr-28 09:33N 51°60' E 003°56'5 5.4
2016-Apr-28 08:33N 51°57' E 003°50'1 1.1
2016-Apr-28 07:33N 51°55' E 003°49'0 0.0
2016-Apr-28 06:33N 51°55' E 003°49'0 0.0
2016-Apr-28 05:33N 51°55' E 003°49'0 0.0
2016-Apr-28 04:33N 51°55' E 003°49'0 0.1
2016-Apr-28 03:33N 51°55' E 003°49'0 0.2
2016-Apr-28 02:33N 51°55' E 003°49'0 0.0
2016-Apr-28 01:33N 51°55' E 003°49'0 0.0
2016-Apr-28 00:33N 51°55' E 003°49'0 0.0
2016-Apr-27 23:33N 51°55' E 003°49'0 0.1
2016-Apr-27 22:33N 51°55' E 003°49'0 0.0
2016-Apr-27 21:33N 51°55' E 003°49'0 0.0
2016-Apr-27 20:33N 51°55' E 003°49'0 0.1
2016-Apr-27 19:33N 51°55' E 003°49'0 0.0
2016-Apr-27 18:33N 51°55' E 003°49'0 0.0
2016-Apr-27 17:33N 51°55' E 003°49'0 0.0
2016-Apr-27 16:33N 51°55' E 003°49'0 0.0
2016-Apr-27 15:33N 51°55' E 003°49'0 0.1
2016-Apr-27 14:33N 51°55' E 003°49'0 0.0
2016-Apr-27 13:33N 51°55' E 003°49'0 0.1
2016-Apr-27 12:33N 51°55' E 003°49'0 0.0
2016-Apr-27 11:33N 51°55' E 003°49'0 0.0
2016-Apr-27 10:33N 51°55' E 003°49'0 0.0
2016-Apr-27 09:33N 51°55' E 003°49'0 0.0
2016-Apr-27 08:33N 51°55' E 003°49'0 0.0
2016-Apr-27 07:33N 51°55' E 003°49'0 0.0
2016-Apr-27 06:33N 51°55' E 003°49'0 0.0
2016-Apr-27 05:33N 51°55' E 003°49'0 0.0
2016-Apr-27 04:33N 51°55' E 003°49'0 0.1
2016-Apr-27 03:33N 51°55' E 003°49'0 0.1
2016-Apr-27 02:33N 51°55' E 003°49'0 0.3
2016-Apr-27 01:33N 51°56' E 003°49'0 0.0
2016-Apr-27 00:33N 51°56' E 003°49'0 0.0
2016-Apr-26 23:33N 51°56' E 003°49'0 0.0
2016-Apr-26 22:33N 51°56' E 003°49'0 0.0
2016-Apr-26 21:33N 51°56' E 003°49'1 0.9
2016-Apr-26 20:33N 51°57' E 003°49'1010.1
2016-Apr-26 19:33N 52°04' E 003°38'1410.4
2016-Apr-26 18:13N 52°11' E 003°18'710.4
2016-Apr-26 17:32N 52°14' E 003°08'1110.5
2016-Apr-26 16:32N 52°18' E 002°52'2210.5
2016-Apr-26 14:26N 52°24' E 002°17'910.4
2016-Apr-26 13:33N 52°28' E 002°04'1110.5
2016-Apr-26 12:33N 52°33' E 001°48'3 3.2
2016-Apr-26 11:31N 52°35' E 001°44'0 0.0
2016-Apr-26 10:31N 52°35' E 001°44'0 0.0
2016-Apr-26 09:31N 52°35' E 001°44'0 0.0
2016-Apr-26 08:31N 52°35' E 001°44'0 0.0
2016-Apr-26 07:31N 52°35' E 001°44'0 0.0
2016-Apr-26 06:31N 52°35' E 001°44'0 0.0
2016-Apr-26 05:31N 52°35' E 001°44'0 0.0
2016-Apr-26 04:28N 52°35' E 001°44'0 0.0
2016-Apr-26 03:31N 52°35' E 001°44'0 0.0
2016-Apr-26 02:31N 52°35' E 001°44'0 0.0
2016-Apr-26 01:31N 52°35' E 001°44'0 0.0
2016-Apr-26 00:31N 52°35' E 001°44'0 0.0
2016-Apr-25 23:31N 52°35' E 001°44'0 0.0
2016-Apr-25 22:31N 52°35' E 001°44'0 0.0
2016-Apr-25 21:31N 52°35' E 001°44'0 0.0
2016-Apr-25 20:31N 52°35' E 001°44'0 0.0
2016-Apr-25 19:31N 52°35' E 001°44'0 0.0
2016-Apr-25 18:31N 52°35' E 001°44'0 0.0
2016-Apr-25 17:31N 52°35' E 001°44'0 0.0
2016-Apr-25 16:31N 52°35' E 001°44'0 0.0
2016-Apr-25 15:28N 52°35' E 001°44'0 0.0
2016-Apr-25 14:28N 52°35' E 001°44'0 0.0
2016-Apr-25 13:31N 52°35' E 001°44'0 0.0
2016-Apr-25 12:31N 52°35' E 001°44'0 0.0
2016-Apr-25 11:31N 52°35' E 001°44'0 0.0
2016-Apr-25 10:31N 52°35' E 001°44'0 0.0
2016-Apr-25 09:31N 52°35' E 001°44'0 0.0
2016-Apr-25 08:31N 52°35' E 001°44'0 0.0
2016-Apr-25 07:31N 52°35' E 001°44'0 0.0
2016-Apr-25 06:31N 52°35' E 001°44'0 0.0
2016-Apr-25 05:31N 52°35' E 001°44'0 0.0
2016-Apr-25 04:31N 52°35' E 001°44'0 0.0
2016-Apr-25 03:31N 52°35' E 001°44'0 0.0
2016-Apr-25 02:31N 52°35' E 001°44'0 0.0
2016-Apr-25 01:31N 52°35' E 001°44'0 0.0
2016-Apr-25 00:31N 52°35' E 001°44'0 0.0
2016-Apr-24 23:31N 52°35' E 001°44'0 0.0
2016-Apr-24 22:31N 52°35' E 001°44'0 0.0
2016-Apr-24 21:31N 52°35' E 001°44'0 0.0
2016-Apr-24 20:31N 52°35' E 001°44'0 0.0
2016-Apr-24 19:31N 52°35' E 001°44'0 0.0
2016-Apr-24 18:31N 52°35' E 001°44'0 0.0
2016-Apr-24 17:31N 52°35' E 001°44'0 0.0
2016-Apr-24 16:31N 52°35' E 001°44'0 0.0
2016-Apr-24 15:31N 52°35' E 001°44'0 0.0
2016-Apr-24 14:31N 52°35' E 001°44'0 0.0
2016-Apr-24 13:31N 52°35' E 001°44'0 0.0
2016-Apr-24 12:31N 52°35' E 001°44'0 0.0
2016-Apr-24 11:31N 52°35' E 001°44'0 0.0
2016-Apr-24 10:31N 52°35' E 001°44'0 0.0
2016-Apr-24 09:31N 52°35' E 001°44'0 0.0
2016-Apr-24 08:28N 52°35' E 001°44'0 0.0
2016-Apr-24 07:31N 52°35' E 001°44'0 0.0
2016-Apr-24 06:31N 52°35' E 001°44'0 0.0
2016-Apr-24 05:31N 52°35' E 001°44'0 0.0
2016-Apr-24 04:31N 52°35' E 001°44'0 0.0
2016-Apr-24 03:31N 52°35' E 001°44'0 0.0
2016-Apr-24 02:31N 52°35' E 001°44'0 0.0
2016-Apr-24 01:31N 52°35' E 001°44'0 0.0
2016-Apr-24 00:31N 52°35' E 001°44'0 0.0
2016-Apr-23 23:31N 52°35' E 001°44'0 0.0
2016-Apr-23 22:31N 52°35' E 001°44'0 0.0
2016-Apr-23 21:31N 52°35' E 001°44'0 0.0
2016-Apr-23 20:31N 52°35' E 001°44'0 0.0
2016-Apr-23 19:31N 52°35' E 001°44'0 0.0
2016-Apr-23 18:31N 52°35' E 001°44'0 0.0
2016-Apr-23 17:31N 52°35' E 001°44'0 0.0
2016-Apr-23 16:31N 52°35' E 001°44'0 0.0
2016-Apr-23 15:31N 52°35' E 001°44'0 0.0
2016-Apr-23 14:33N 52°35' E 001°44'0 0.0
2016-Apr-23 13:33N 52°35' E 001°44'0 0.0
2016-Apr-23 12:33N 52°35' E 001°44'0 0.1
2016-Apr-23 11:33N 52°35' E 001°44'1 1.2
2016-Apr-23 10:33N 52°35' E 001°46'1 0.5
2016-Apr-23 09:33N 52°35' E 001°46'2 2.1
2016-Apr-23 08:33N 52°33' E 001°46'4 3.6
2016-Apr-23 07:33N 52°32' E 001°51'8 7.7
2016-Apr-23 06:33N 52°24' E 001°51'10 9.7
2016-Apr-23 05:33N 52°14' E 001°50'1111.0
2016-Apr-23 04:33N 52°03' E 001°50'1211.7
2016-Apr-23 03:33N 51°52' E 001°49'1111.4
2016-Apr-23 02:33N 51°40' E 001°49'1110.8
2016-Apr-23 01:33N 51°30' E 001°46'1111.3
2016-Apr-23 00:33N 51°19' E 001°41'1010.3
2016-Apr-22 23:33N 51°08' E 001°41'1010.1
2016-Apr-22 22:33N 51°00' E 001°31'9 8.7
2016-Apr-22 21:33N 50°53' E 001°24'45 7.4
2016-Apr-22 15:26N 50°25' E 000°28'7 7.7
2016-Apr-22 14:33N 50°23' E 000°18'7 7.4
2016-Apr-22 13:33N 50°21' E 000°07'7 7.3
2016-Apr-22 12:33N 50°20' W 000°04'7 7.5
2016-Apr-22 11:33N 50°21' W 000°16'8 8.4
2016-Apr-22 10:33N 50°25' W 000°28'11 9.8
2016-Apr-22 09:25N 50°28' W 000°45'910.7
2016-Apr-22 08:33N 50°30' W 000°59'1412.5
2016-Apr-22 07:29N 50°28' W 001°20'4510.1
2016-Apr-22 03:03N 50°20' W 002°28'4 7.7
2016-Apr-22 02:33N 50°19' W 002°34'8 7.6
2016-Apr-22 01:33N 50°16' W 002°45'8 8.1
2016-Apr-22 00:33N 50°14' W 002°57'9 8.7
2016-Apr-21 23:33N 50°11' W 003°10'9 9.1
2016-Apr-21 22:33N 50°09' W 003°24'9 9.5
2016-Apr-21 21:33N 50°07' W 003°39'10 9.5
2016-Apr-21 20:33N 50°05' W 003°53'10 9.8
2016-Apr-21 19:33N 50°03' W 004°08'1010.0
2016-Apr-21 18:33N 50°00' W 004°23'1010.1
2016-Apr-21 17:33N 49°58' W 004°38'1010.1
2016-Apr-21 16:33N 49°56' W 004°54'10 9.8
2016-Apr-21 15:32N 49°54' W 005°09'35 6.8
2016-Apr-21 10:24N 50°06' W 006°00'910.8
2016-Apr-21 09:33N 50°15' W 006°01'1010.4
2016-Apr-21 08:33N 50°24' W 005°53'1211.6
2016-Apr-21 07:33N 50°32' W 005°39'1110.6
2016-Apr-21 06:33N 50°39' W 005°27'10 9.9
2016-Apr-21 05:33N 50°45' W 005°14'10 9.7
2016-Apr-21 04:33N 50°51' W 005°02'9 9.4
2016-Apr-21 03:33N 50°57' W 004°51'9 9.0
2016-Apr-21 02:33N 51°03' W 004°40'9 9.0
2016-Apr-21 01:33N 51°09' W 004°29'10 9.8
2016-Apr-21 00:33N 51°16' W 004°18'1210.7
2016-Apr-20 23:27N 51°18' W 003°59'1212.8
2016-Apr-20 22:33N 51°20' W 003°41'1514.0
2016-Apr-20 21:28N 51°22' W 003°17'1112.1
2016-Apr-20 20:33N 51°26' W 003°01'1312.9
2016-Apr-20 19:33N 51°33' W 002°43'10 9.6
2016-Apr-20 18:33N 51°40' W 002°33'  

Dump ship's entire track history